Okmulgee, Oklahoma
Current Conditions -  °F | °C
As of 11:35 AM on Monday 22 Dec 2014 (Local Time) from KOKM Reporting Station
Overcast Overcast  
Wind Chill: 52°   Ceiling: 1300
Heat Index: 52°   Visibility: 10mi
Dew Point: 49°   Wind: 5mph
Humidity: 88%   Direction: 240°WSW
Pressure: 29.57"   Gusts: NA
Location:  35.62°N, 95.97°W
Report Text: KOKM 221735Z AUTO 24004KT 10SM BKN013 BKN019 OVC036 11/09 A2957 RMK AO2 T01120093
Loading
Personal Weather Stations






























Interactive Weather Map New forecast layout! Learn more

10-Day Weather Forecast

Advertisements
Track Severe Weather on mobile